Time;durP1;ratioP1;P1;durP2;ratioP2;P2;SDS_P1;SDS_P2;PMS_P1;PMS_P2;Temp;Humidity;BMP_temperature;BMP_pressure;BME280_temperature;BME280_humidity;BME280_pressure;Samples;Min_cycle;Max_cycle;Signal;HPM_P1;HPM_P2
2021/09/03 00:00:17;;;;;;;1.67;0.80;;;;;;;11.63;73.48;100484.17;1783742;80;20928;-74
2021/09/03 00:02:44;;;;;;;1.57;0.75;;;;;;;11.58;73.60;100485.79;1783734;80;20940;-74
2021/09/03 00:05:17;;;;;;;2.60;1.27;;;;;;;11.57;74.27;100484.56;1783883;80;21353;-74
2021/09/03 00:07:44;;;;;;;3.05;0.85;;;;;;;11.58;73.86;100489.73;1783907;80;21116;-73
2021/09/03 00:10:12;;;;;;;1.85;0.82;;;;;;;11.56;73.68;100494.69;1783520;80;20923;-74
2021/09/03 00:12:41;;;;;;;1.37;0.78;;;;;;;11.53;73.69;100492.27;1783466;80;20848;-73
2021/09/03 00:28:07;;;;;;;1.45;1.20;;;;;;;11.70;73.73;100505.14;1774834;80;22605;-68
2021/09/03 00:30:34;;;;;;;1.12;0.90;;;;;;;11.67;73.40;100507.11;1733157;82;21440;-68
2021/09/03 00:33:01;;;;;;;1.27;0.78;;;;;;;11.63;73.53;100510.44;1733145;82;21058;-67
2021/09/03 00:35:29;;;;;;;2.17;0.98;;;;;;;11.59;73.86;100514.20;1732956;81;20975;-66
2021/09/03 00:37:56;;;;;;;1.52;1.42;;;;;;;11.54;73.52;100513.67;1733297;82;20935;-67
2021/09/03 00:40:23;;;;;;;1.57;0.90;;;;;;;11.46;73.85;100512.84;1733241;81;21413;-66
2021/09/03 00:42:50;;;;;;;1.90;1.00;;;;;;;11.45;74.08;100515.11;1733178;82;20927;-66
2021/09/03 00:45:17;;;;;;;0.70;0.70;;;;;;;11.44;74.34;100519.14;1733103;82;22004;-66
2021/09/03 00:47:44;;;;;;;1.10;0.95;;;;;;;11.41;74.32;100517.56;1733118;82;20884;-67
2021/09/03 00:50:11;;;;;;;1.32;1.22;;;;;;;11.39;74.24;100524.22;1733172;81;20983;-67
2021/09/03 00:52:39;;;;;;;1.50;0.60;;;;;;;11.35;73.95;100516.16;1732983;82;21131;-67
2021/09/03 00:55:07;;;;;;;1.42;0.80;;;;;;;11.31;73.88;100524.34;1733399;82;20892;-66
2021/09/03 00:57:34;;;;;;;3.27;1.20;;;;;;;11.25;73.82;100523.41;1732997;82;21188;-67
2021/09/03 01:00:02;;;;;;;2.08;0.98;;;;;;;11.20;74.21;100527.20;1733175;82;20915;-67
2021/09/03 01:02:29;;;;;;;2.42;0.70;;;;;;;11.17;74.15;100527.86;1733038;82;20986;-66
2021/09/03 01:04:56;;;;;;;1.57;0.90;;;;;;;11.13;74.54;100528.52;1733082;81;21449;-67
2021/09/03 01:07:23;;;;;;;1.45;0.68;;;;;;;11.13;74.61;100530.30;1732982;82;20944;-67
2021/09/03 01:09:50;;;;;;;1.47;0.98;;;;;;;11.12;74.50;100534.72;1732979;82;21428;-67
2021/09/03 01:12:18;;;;;;;2.35;0.93;;;;;;;11.08;74.67;100531.91;1733015;81;20880;-67
2021/09/03 01:14:47;;;;;;;1.98;1.22;;;;;;;11.07;74.82;100525.44;1733057;82;20884;-67
2021/09/03 01:17:15;;;;;;;1.72;0.70;;;;;;;11.04;74.79;100535.66;1732932;82;20948;-67
2021/09/03 01:19:41;;;;;;;0.78;0.60;;;;;;;11.03;75.14;100531.81;1733431;81;20967;-66
2021/09/03 01:22:08;;;;;;;1.85;0.60;;;;;;;11.02;75.18;100537.54;1716573;82;21184;-66
2021/09/03 01:24:35;;;;;;;0.78;0.70;;;;;;;10.99;75.15;100541.68;1733034;82;21484;-67
2021/09/03 01:27:02;;;;;;;1.85;1.10;;;;;;;10.97;75.25;100539.14;1734046;81;20927;-68
2021/09/03 01:29:29;;;;;;;1.27;0.62;;;;;;;10.98;75.34;100542.60;1735559;82;20916;-67
2021/09/03 01:31:55;;;;;;;2.00;0.98;;;;;;;10.98;75.54;100540.84;1735444;82;20892;-66
2021/09/03 01:34:22;;;;;;;1.40;0.70;;;;;;;10.98;75.44;100547.41;1735429;81;21521;-67
2021/09/03 01:36:49;;;;;;;1.42;0.53;;;;;;;10.96;75.10;100547.10;1735507;81;21019;-67
2021/09/03 01:39:16;;;;;;;2.10;0.78;;;;;;;10.93;75.30;100544.68;1735452;82;20928;-67
2021/09/03 01:41:43;;;;;;;1.17;0.55;;;;;;;10.92;75.52;100550.41;1735321;82;20935;-67
2021/09/03 01:44:10;;;;;;;1.70;0.90;;;;;;;10.92;75.33;100546.95;1735357;82;21010;-67
2021/09/03 01:46:37;;;;;;;1.87;0.95;;;;;;;10.87;75.36;100550.30;1735316;82;21583;-67
2021/09/03 01:49:04;;;;;;;1.77;0.85;;;;;;;10.82;75.80;100552.38;1735269;82;21403;-66
2021/09/03 01:51:31;;;;;;;0.85;0.85;;;;;;;10.84;75.74;100551.82;1735386;81;20951;-66
2021/09/03 01:53:58;;;;;;;4.37;1.25;;;;;;;10.84;75.75;100564.46;1736002;81;21022;-66
2021/09/03 01:56:25;;;;;;;1.27;0.68;;;;;;;10.82;75.80;100556.31;1735248;82;21412;-67
2021/09/03 01:58:52;;;;;;;13.60;1.00;;;;;;;10.80;75.79;100565.59;1735822;82;21498;-68
2021/09/03 02:01:19;;;;;;;2.00;0.98;;;;;;;10.78;75.84;100567.02;1735267;82;21384;-68
2021/09/03 02:03:46;;;;;;;2.25;0.65;;;;;;;10.77;75.83;100573.66;1735387;82;20892;-67
2021/09/03 02:06:13;;;;;;;2.35;1.15;;;;;;;10.74;75.54;100579.10;1735250;81;20967;-68
2021/09/03 02:08:42;;;;;;;1.80;0.90;;;;;;;10.70;75.78;100584.16;1735354;82;20939;-67
2021/09/03 02:11:10;;;;;;;2.00;0.82;;;;;;;10.66;75.93;100578.23;1710155;82;21537;-67
2021/09/03 02:13:40;;;;;;;1.12;0.88;;;;;;;10.66;76.14;100586.11;1735293;82;21429;-68
2021/09/03 02:16:06;;;;;;;0.82;0.55;;;;;;;10.64;76.12;100586.67;1735323;82;20900;-68
2021/09/03 02:18:33;;;;;;;2.30;0.60;;;;;;;10.62;76.19;100593.78;1735396;82;20928;-68
2021/09/03 02:21:00;;;;;;;3.00;0.85;;;;;;;10.61;76.05;100589.48;1735399;82;20967;-67
2021/09/03 02:23:28;;;;;;;3.47;0.65;;;;;;;10.57;76.16;100603.24;1735295;81;21192;-69
2021/09/03 02:25:55;;;;;;;1.70;0.60;;;;;;;10.58;76.03;100602.77;1735314;82;21369;-67
2021/09/03 02:28:21;;;;;;;0.93;0.70;;;;;;;10.53;76.02;100604.36;1732859;81;20932;-68
2021/09/03 02:30:48;;;;;;;2.95;0.75;;;;;;;10.49;76.07;100603.33;1732613;82;21381;-67
2021/09/03 02:33:15;;;;;;;3.72;0.50;;;;;;;10.48;76.37;100610.36;1732465;82;20888;-67
2021/09/03 02:35:43;;;;;;;3.02;0.40;;;;;;;10.51;76.34;100605.39;1732342;82;21970;-68
2021/09/03 02:38:11;;;;;;;1.00;0.70;;;;;;;10.50;76.24;100606.34;1732218;82;21054;-67
2021/09/03 02:40:38;;;;;;;1.42;0.50;;;;;;;10.49;76.31;100617.75;1732542;82;20876;-68
2021/09/03 02:43:05;;;;;;;1.80;0.50;;;;;;;10.48;76.08;100607.73;1732521;82;21461;-69
2021/09/03 02:45:32;;;;;;;1.90;0.80;;;;;;;10.46;75.82;100611.38;1732399;82;20978;-68
2021/09/03 02:48:01;;;;;;;1.50;0.68;;;;;;;10.40;75.85;100612.58;1732469;82;20880;-68
2021/09/03 02:50:31;;;;;;;5.72;0.95;;;;;;;10.36;76.15;100614.55;1732696;81;20880;-68
2021/09/03 02:53:02;;;;;;;0.90;0.55;;;;;;;10.34;76.23;100615.59;1732378;82;20884;-68
2021/09/03 02:55:27;;;;;;;1.15;0.70;;;;;;;10.33;76.68;100613.88;1732231;82;20931;-67
2021/09/03 02:57:55;;;;;;;0.30;0.30;;;;;;;10.36;76.89;100622.90;1732421;81;20880;-68
2021/09/03 03:00:23;;;;;;;0.80;0.55;;;;;;;10.40;76.72;100620.92;1732439;82;20916;-67
2021/09/03 03:02:54;;;;;;;1.02;0.70;;;;;;;10.43;76.76;100627.31;1732253;82;21492;-68
2021/09/03 03:05:21;;;;;;;2.62;0.47;;;;;;;10.44;76.57;100635.53;1732720;82;20975;-68
2021/09/03 03:07:48;;;;;;;2.90;0.68;;;;;;;10.45;76.33;100630.66;1732376;81;20896;-67
2021/09/03 03:10:17;;;;;;;6.28;1.52;;;;;;;10.43;76.33;100637.32;1732541;82;21374;-67
2021/09/03 03:12:43;;;;;;;1.65;0.60;;;;;;;10.41;76.05;100638.35;1732597;81;21511;-67
2021/09/03 03:15:10;;;;;;;0.60;0.60;;;;;;;10.38;76.32;100648.52;1732789;82;20986;-67
2021/09/03 03:17:37;;;;;;;0.78;0.40;;;;;;;10.39;76.34;100652.02;1732607;81;21389;-68
2021/09/03 03:20:06;;;;;;;1.95;0.60;;;;;;;10.36;76.19;100651.73;1732380;82;20913;-69
2021/09/03 03:22:33;;;;;;;3.45;1.00;;;;;;;10.36;76.55;100657.81;1732385;81;20983;-67
2021/09/03 03:25:00;;;;;;;3.37;0.50;;;;;;;10.41;76.66;100661.95;1732626;82;21924;-67
2021/09/03 03:27:27;;;;;;;1.98;1.07;;;;;;;10.44;76.05;100667.83;1733199;81;20892;-68
2021/09/03 03:29:54;;;;;;;1.05;0.80;;;;;;;10.41;76.12;100660.63;1735360;81;20939;-67
2021/09/03 03:32:20;;;;;;;2.55;0.68;;;;;;;10.40;76.31;100661.55;1735449;82;20884;-67
2021/09/03 03:34:48;;;;;;;2.33;0.70;;;;;;;10.41;76.07;100661.47;1735298;81;20891;-67
2021/09/03 03:37:16;;;;;;;1.80;0.47;;;;;;;10.40;75.78;100670.25;1735317;82;21444;-68
2021/09/03 03:39:43;;;;;;;1.65;0.50;;;;;;;10.34;75.86;100677.19;1735275;81;20947;-67
2021/09/03 03:42:10;;;;;;;0.72;0.60;;;;;;;10.32;76.26;100686.91;1735223;82;20947;-68
2021/09/03 03:44:37;;;;;;;2.72;0.68;;;;;;;10.34;76.25;100679.81;1735225;81;20975;-67
2021/09/03 03:47:04;;;;;;;0.82;0.30;;;;;;;10.34;76.36;100682.43;1735264;82;21432;-68
2021/09/03 03:49:31;;;;;;;1.77;0.60;;;;;;;10.33;76.12;100681.56;1735336;81;21543;-67
2021/09/03 03:52:00;;;;;;;0.80;0.42;;;;;;;10.34;76.50;100687.20;1735260;82;21472;-68
2021/09/03 03:54:27;;;;;;;1.80;0.57;;;;;;;10.37;75.80;100678.30;1735213;82;20998;-68
2021/09/03 03:56:54;;;;;;;1.35;0.60;;;;;;;10.35;75.87;100681.48;1735179;82;20904;-67
2021/09/03 03:59:22;;;;;;;0.72;0.40;;;;;;;10.35;75.84;100685.41;1735385;82;20991;-67
2021/09/03 04:01:49;;;;;;;1.00;0.40;;;;;;;10.34;75.74;100687.20;1735322;81;21107;-68
2021/09/03 04:04:16;;;;;;;1.22;0.53;;;;;;;10.34;76.13;100692.92;1735177;82;20908;-67
2021/09/03 04:06:44;;;;;;;0.82;0.80;;;;;;;10.37;76.10;100695.34;1735278;82;20975;-67
2021/09/03 04:09:11;;;;;;;2.65;1.72;;;;;;;10.40;76.16;100692.53;1735182;82;21463;-68
2021/09/03 04:11:41;;;;;;;2.15;0.65;;;;;;;10.41;75.71;100699.48;1735289;82;20967;-68
2021/09/03 04:14:09;;;;;;;1.25;1.05;;;;;;;10.44;76.01;100701.91;1735377;82;20975;-68
2021/09/03 04:16:37;;;;;;;2.50;0.50;;;;;;;10.48;75.65;100703.43;1735170;82;20931;-68
2021/09/03 04:19:05;;;;;;;5.25;0.82;;;;;;;10.51;75.90;100707.17;1735235;82;20868;-67
2021/09/03 04:21:32;;;;;;;1.52;0.70;;;;;;;10.54;75.81;100709.64;1735174;82;20951;-67
2021/09/03 04:24:00;;;;;;;2.05;0.80;;;;;;;10.62;75.73;100707.02;1735339;82;21409;-67
2021/09/03 04:26:27;;;;;;;2.55;1.00;;;;;;;10.70;75.53;100710.05;1733879;82;21191;-68
2021/09/03 04:28:56;;;;;;;1.52;0.72;;;;;;;10.77;74.89;100707.43;1733457;82;21551;-68
2021/09/03 04:31:23;;;;;;;0.90;0.60;;;;;;;10.79;74.49;100709.50;1733664;82;21078;-67
2021/09/03 04:33:49;;;;;;;1.12;0.62;;;;;;;10.82;74.48;100715.02;1733926;82;20908;-68
2021/09/03 04:36:17;;;;;;;0.40;0.40;;;;;;;10.88;74.37;100718.60;1735172;81;20931;-66
2021/09/03 04:38:44;;;;;;;3.80;0.68;;;;;;;10.93;74.20;100721.31;1735305;82;21527;-67
2021/09/03 04:41:10;;;;;;;7.35;1.75;;;;;;;11.02;74.06;100725.64;1735509;81;20982;-67
2021/09/03 04:43:37;;;;;;;1.05;0.50;;;;;;;11.08;73.59;100723.49;1735178;82;20931;-68
2021/09/03 04:46:04;;;;;;;1.47;0.57;;;;;;;11.18;73.65;100723.32;1735452;82;20932;-67
2021/09/03 04:48:31;;;;;;;2.77;0.82;;;;;;;11.31;73.15;100728.64;1735161;82;20987;-68
2021/09/03 04:50:58;;;;;;;2.65;0.60;;;;;;;11.50;72.92;100736.24;1735135;82;21109;-69
2021/09/03 04:53:25;;;;;;;1.05;0.40;;;;;;;11.74;72.03;100738.29;1735123;81;20861;-67
2021/09/03 04:55:53;;;;;;;0.57;0.30;;;;;;;12.12;71.58;100738.50;1735139;82;21465;-72
2021/09/03 04:58:20;;;;;;;5.50;0.53;;;;;;;12.79;70.20;100746.35;1735185;81;21143;-71
2021/09/03 05:00:49;;;;;;;1.30;0.50;;;;;;;13.60;68.55;100757.05;1735328;82;20844;-73
2021/09/03 05:03:16;;;;;;;0.65;0.37;;;;;;;15.07;63.66;100749.37;1735557;82;21137;-72
2021/09/03 05:05:43;;;;;;;0.57;0.40;;;;;;;15.07;63.66;100749.37;1735772;81;20939;-70
2021/09/03 05:08:11;;;;;;;1.80;0.40;;;;;;;15.74;61.88;100744.60;1734198;82;21484;-69
2021/09/03 05:10:38;;;;;;;2.05;0.70;;;;;;;16.44;60.11;100750.41;1734705;82;20907;-69
2021/09/03 05:13:06;;;;;;;1.75;0.45;;;;;;;17.12;58.09;100751.38;1735343;82;20899;-70
2021/09/03 05:15:40;;;;;;;7.40;6.50;;;;;;;17.65;55.95;100749.03;1735495;82;21463;-71
2021/09/03 05:18:09;;;;;;;3.05;0.62;;;;;;;18.15;53.48;100760.49;1735245;82;21337;-71
2021/09/03 05:20:35;;;;;;;3.83;0.42;;;;;;;18.59;52.47;100750.31;1735713;82;20888;-70
2021/09/03 05:23:02;;;;;;;2.20;0.40;;;;;;;18.99;51.85;100749.30;1735211;82;20978;-70
2021/09/03 05:25:29;;;;;;;0.75;0.40;;;;;;;19.43;50.50;100750.05;1736023;81;20904;-69
2021/09/03 05:27:56;;;;;;;0.65;0.20;;;;;;;19.85;49.27;100757.11;1734075;82;21111;-70
2021/09/03 05:30:23;;;;;;;0.95;0.60;;;;;;;20.19;48.69;100764.45;1732325;82;20845;-70
2021/09/03 05:32:52;;;;;;;2.25;0.50;;;;;;;20.55;47.63;100767.62;1732206;82;20936;-70
2021/09/03 05:35:20;;;;;;;1.07;0.50;;;;;;;20.93;46.12;100766.44;1732560;82;20951;-68
2021/09/03 05:37:48;;;;;;;1.45;0.80;;;;;;;21.23;45.34;100774.48;1732405;82;20888;-68
2021/09/03 05:40:17;;;;;;;0.40;0.33;;;;;;;21.46;44.40;100774.80;1732522;81;21405;-67
2021/09/03 05:42:43;;;;;;;0.28;0.28;;;;;;;21.75;43.98;100779.43;1732523;82;20943;-69
2021/09/03 05:45:11;;;;;;;2.75;0.60;;;;;;;22.04;43.35;100794.54;1732522;82;21022;-68
2021/09/03 05:47:46;;;;;;;2.20;0.30;;;;;;;22.38;42.61;100796.81;1732366;81;20880;-67
2021/09/03 05:50:14;;;;;;;2.72;0.50;;;;;;;22.65;41.71;100791.66;1732476;82;20963;-67
2021/09/03 05:52:41;;;;;;;3.22;0.57;;;;;;;22.88;40.95;100799.86;1732402;82;21477;-70
2021/09/03 05:55:09;;;;;;;1.82;0.57;;;;;;;23.00;40.22;100797.70;1732369;81;20923;-69
2021/09/03 05:57:36;;;;;;;1.47;0.23;;;;;;;23.07;39.99;100802.19;1732402;82;20931;-69
2021/09/03 06:00:04;;;;;;;1.75;0.20;;;;;;;23.23;40.04;100801.32;1732484;81;20959;-68
2021/09/03 06:02:31;;;;;;;0.82;0.35;;;;;;;23.44;39.43;100803.97;1732565;82;20932;-68
2021/09/03 06:04:58;;;;;;;1.60;0.50;;;;;;;23.72;39.20;100806.55;1732456;82;21932;-68
2021/09/03 06:07:25;;;;;;;1.25;0.47;;;;;;;23.98;38.53;100806.78;1732311;82;21412;-68
2021/09/03 06:09:52;;;;;;;0.47;0.33;;;;;;;24.11;38.12;100808.91;1732364;82;20943;-68
2021/09/03 06:12:19;;;;;;;2.00;0.30;;;;;;;24.26;38.00;100811.67;1732357;82;21504;-68
2021/09/03 06:14:46;;;;;;;3.98;1.42;;;;;;;24.42;37.49;100811.55;1732744;81;20888;-69
2021/09/03 06:17:13;;;;;;;4.22;0.40;;;;;;;24.63;37.54;100816.80;1732452;81;21141;-68
2021/09/03 06:19:40;;;;;;;4.30;0.50;;;;;;;24.81;36.05;100817.31;1732533;81;20929;-69
2021/09/03 06:22:07;;;;;;;2.37;0.57;;;;;;;24.89;35.62;100810.55;1732351;81;20840;-70
2021/09/03 06:24:35;;;;;;;1.55;0.47;;;;;;;24.94;35.62;100816.19;1732416;82;20960;-69
2021/09/03 06:27:05;;;;;;;4.05;0.40;;;;;;;25.06;36.05;100819.30;1732493;82;21473;-69
2021/09/03 06:29:42;;;;;;;0.68;0.25;;;;;;;25.26;35.49;100813.41;1731698;82;22003;-69
2021/09/03 06:32:20;;;;;;;2.65;0.30;;;;;;;25.51;35.77;100816.68;1732388;82;20860;-68
2021/09/03 06:34:50;;;;;;;0.60;0.30;;;;;;;25.85;35.30;100814.74;1732693;81;20931;-68
2021/09/03 06:37:18;;;;;;;28.83;2.05;;;;;;;26.18;34.15;100827.78;1732398;81;20920;-69
2021/09/03 06:39:45;;;;;;;1.15;0.35;;;;;;;26.27;33.08;100821.27;1732811;82;21460;-69
2021/09/03 06:42:12;;;;;;;1.62;0.30;;;;;;;26.32;33.62;100824.20;1732538;82;22202;-68
2021/09/03 06:44:41;;;;;;;0.88;0.23;;;;;;;26.45;33.26;100818.14;1732646;82;21358;-69
2021/09/03 06:47:08;;;;;;;2.25;0.30;;;;;;;26.61;32.36;100826.00;1732512;82;20924;-69
2021/09/03 06:49:35;;;;;;;5.05;3.15;;;;;;;26.69;32.80;100827.72;1732755;81;20936;-69
2021/09/03 06:52:02;;;;;;;1.82;0.40;;;;;;;26.84;32.23;100827.13;1732483;82;20884;-68
2021/09/03 06:54:31;;;;;;;0.68;0.10;;;;;;;26.92;31.98;100835.56;1732488;82;21153;-69
2021/09/03 06:56:59;;;;;;;1.45;0.30;;;;;;;27.03;31.55;100837.73;1732279;82;20896;-70
2021/09/03 06:59:27;;;;;;;0.57;0.30;;;;;;;27.20;31.17;100844.19;1732317;82;20896;-70
2021/09/03 07:01:55;;;;;;;0.30;0.28;;;;;;;27.26;30.70;100836.19;1732470;82;21104;-69
2021/09/03 07:04:22;;;;;;;0.68;0.20;;;;;;;27.24;31.23;100844.16;1732730;81;20947;-70
2021/09/03 07:06:52;;;;;;;2.67;0.40;;;;;;;27.51;30.85;100837.06;1732385;82;21385;-69
2021/09/03 07:09:20;;;;;;;0.50;0.20;;;;;;;27.70;30.54;100843.58;1732444;82;21018;-68
2021/09/03 07:11:49;;;;;;;1.75;0.20;;;;;;;27.74;30.21;100839.98;1732358;82;20939;-69
2021/09/03 07:14:18;;;;;;;0.47;0.25;;;;;;;27.77;29.83;100846.31;1732342;82;20928;-68
2021/09/03 07:16:46;;;;;;;0.47;0.30;;;;;;;27.76;29.46;100840.63;1732537;82;21381;-68
2021/09/03 07:19:13;;;;;;;0.42;0.10;;;;;;;27.68;28.42;100851.03;1732535;82;20979;-67
2021/09/03 07:21:40;;;;;;;0.50;0.35;;;;;;;27.62;28.97;100854.02;1732758;81;20919;-69
2021/09/03 07:24:07;;;;;;;1.15;0.30;;;;;;;27.71;28.49;100846.61;1732405;82;20903;-70
2021/09/03 07:26:34;;;;;;;4.47;0.20;;;;;;;27.80;28.83;100845.41;1732580;82;20924;-69
2021/09/03 07:29:03;;;;;;;0.50;0.20;;;;;;;27.99;28.52;100852.45;1733798;82;20888;-68
2021/09/03 07:31:31;;;;;;;1.85;0.30;;;;;;;27.92;27.20;100851.61;1735496;82;21123;-68
2021/09/03 07:33:58;;;;;;;0.20;0.17;;;;;;;27.91;27.75;100848.09;1735161;82;20923;-68
2021/09/03 07:36:25;;;;;;;0.68;0.20;;;;;;;27.86;27.51;100847.34;1735320;81;20947;-68
2021/09/03 07:38:52;;;;;;;1.47;0.25;;;;;;;27.73;28.44;100846.42;1735265;81;21469;-69
2021/09/03 07:41:22;;;;;;;2.92;0.17;;;;;;;27.91;28.55;100849.44;1735562;81;20896;-68
2021/09/03 07:43:48;;;;;;;0.57;0.10;;;;;;;28.00;27.79;100853.61;1735339;82;21551;-69
2021/09/03 07:46:15;;;;;;;4.22;0.62;;;;;;;27.88;26.98;100843.93;1735474;82;20887;-69
2021/09/03 07:48:43;;;;;;;3.08;0.37;;;;;;;27.94;27.06;100849.02;1735591;82;20986;-69
2021/09/03 07:51:10;;;;;;;1.87;0.28;;;;;;;27.93;26.61;100840.63;1735158;82;20928;-69
2021/09/03 07:53:37;;;;;;;1.87;0.25;;;;;;;28.03;26.49;100852.38;1735325;82;20908;-69
2021/09/03 07:56:04;;;;;;;0.55;0.30;;;;;;;27.99;26.50;100841.18;1735269;81;21525;-70
2021/09/03 07:58:31;;;;;;;1.32;0.20;;;;;;;27.87;26.38;100832.81;1735148;82;20971;-70
2021/09/03 08:01:00;;;;;;;0.62;0.20;;;;;;;27.88;26.77;100839.89;1735314;82;20998;-68
2021/09/03 08:03:28;;;;;;;1.55;0.37;;;;;;;28.02;27.25;100835.38;1734940;82;20900;-69
2021/09/03 08:05:55;;;;;;;0.42;0.30;;;;;;;28.13;26.23;100827.75;1735134;82;21499;-68
2021/09/03 08:08:23;;;;;;;1.90;0.20;;;;;;;28.26;26.02;100825.09;1735426;82;21163;-69
2021/09/03 08:10:51;;;;;;;0.90;0.85;;;;;;;28.29;26.06;100828.19;1735120;81;20963;-68
2021/09/03 08:13:18;;;;;;;2.17;0.20;;;;;;;28.36;26.13;100824.69;1735305;82;20916;-71
2021/09/03 08:15:47;;;;;;;2.30;0.20;;;;;;;28.30;25.58;100820.92;1735220;82;20979;-70
2021/09/03 08:18:15;;;;;;;1.90;0.28;;;;;;;28.48;26.69;100820.36;1735235;82;20900;-73
2021/09/03 08:20:45;;;;;;;1.27;0.20;;;;;;;28.65;26.61;100816.23;1735244;81;21122;-72
2021/09/03 08:23:13;;;;;;;1.30;0.20;;;;;;;28.45;25.86;100819.41;1735282;82;20927;-73
2021/09/03 08:25:40;;;;;;;0.72;0.30;;;;;;;28.21;25.76;100810.02;1735277;81;21014;-72
2021/09/03 08:28:07;;;;;;;5.20;0.40;;;;;;;28.18;26.34;100813.95;1735498;81;21460;-70
2021/09/03 08:30:34;;;;;;;1.07;0.40;;;;;;;28.20;25.42;100813.76;1732746;82;21007;-72
2021/09/03 08:33:01;;;;;;;2.58;0.30;;;;;;;28.27;25.81;100814.07;1732413;82;22130;-73
2021/09/03 08:35:28;;;;;;;0.88;0.20;;;;;;;28.27;25.80;100822.16;1731982;82;20963;-73
2021/09/03 08:37:55;;;;;;;0.93;0.30;;;;;;;28.19;25.92;100822.38;1732455;82;21378;-74
2021/09/03 08:40:22;;;;;;;1.30;0.20;;;;;;;28.24;25.70;100820.41;1732438;82;20893;-73
2021/09/03 08:42:49;;;;;;;26.87;14.87;;;;;;;28.19;25.22;100813.42;1732542;82;21034;-73
2021/09/03 08:45:15;;;;;;;3.22;2.60;;;;;;;28.27;26.30;100812.73;1732714;81;21486;-74
2021/09/03 08:47:44;;;;;;;26.45;15.05;;;;;;;28.59;25.67;100815.73;1732595;82;20947;-70
2021/09/03 08:50:13;;;;;;;14.15;7.72;;;;;;;28.99;25.77;100813.54;1702216;84;21013;-78
2021/09/03 08:52:49;;;;;;;17.10;9.78;;;;;;;29.22;25.82;100812.63;1688068;85;21055;-78
2021/09/03 08:55:16;;;;;;;12.68;6.15;;;;;;;29.33;25.68;100808.45;1672144;85;21456;-79
2021/09/03 08:57:43;;;;;;;1.35;0.47;;;;;;;29.44;25.22;100809.14;1671823;85;21026;-79
2021/09/03 09:00:25;;;;;;;0.68;0.20;;;;;;;29.58;24.25;100809.11;1671658;85;20946;-79
2021/09/03 09:03:03;;;;;;;3.70;2.15;;;;;;;29.49;23.69;100817.97;1671938;85;21479;-79
2021/09/03 09:05:50;;;;;;;2.37;0.45;;;;;;;29.55;24.72;100815.77;1671787;85;21483;-78
2021/09/03 09:08:23;;;;;;;0.30;0.28;;;;;;;29.49;23.18;100814.73;1671575;84;20935;-78
2021/09/03 09:11:12;;;;;;;0.80;0.25;;;;;;;29.41;22.97;100815.48;1671449;85;20902;-80
2021/09/03 09:13:41;;;;;;;2.95;1.67;;;;;;;29.34;23.43;100810.92;1671427;84;20935;-78
2021/09/03 09:16:18;;;;;;;1.02;0.60;;;;;;;29.07;23.87;100816.86;1671626;84;21368;-78
2021/09/03 09:18:56;;;;;;;3.05;1.17;;;;;;;28.92;24.69;100817.06;1671510;84;20974;-79
2021/09/03 09:21:32;;;;;;;0.55;0.37;;;;;;;28.92;24.06;100810.31;1671600;85;21009;-79
2021/09/03 09:24:13;;;;;;;1.98;0.15;;;;;;;29.00;23.56;100808.47;1671506;85;21150;-77
2021/09/03 09:26:50;;;;;;;0.75;0.37;;;;;;;28.82;22.79;100813.97;1671773;85;21001;-77
2021/09/03 09:29:38;;;;;;;1.57;0.50;;;;;;;28.86;23.21;100815.75;1672346;85;21470;-78
2021/09/03 09:32:07;;;;;;;15.80;7.05;;;;;;;28.61;23.71;100812.28;1651115;85;21376;-80
2021/09/03 09:34:36;;;;;;;7.72;4.12;;;;;;;28.27;24.38;100818.64;1674435;85;21041;-84
2021/09/03 09:37:07;;;;;;;0.60;0.35;;;;;;;28.11;24.10;100819.84;1674103;85;21196;-77
2021/09/03 09:39:48;;;;;;;5.22;1.47;;;;;;;28.02;24.25;100809.76;1674108;85;21009;-76
2021/09/03 09:42:28;;;;;;;2.15;1.05;;;;;;;28.03;24.61;100816.80;1674300;85;20982;-78
2021/09/03 09:45:07;;;;;;;1.10;0.60;;;;;;;28.01;23.87;100815.34;1673722;85;20957;-77
2021/09/03 09:47:37;;;;;;;0.72;0.20;;;;;;;28.11;23.21;100816.63;1674100;85;20998;-78
2021/09/03 09:50:27;;;;;;;0.23;0.20;;;;;;;28.25;23.52;100811.27;1674123;85;21144;-71
2021/09/03 09:52:54;;;;;;;0.40;0.20;;;;;;;28.06;23.44;100820.98;1674566;85;21515;-71
2021/09/03 09:55:21;;;;;;;1.52;0.50;;;;;;;27.70;23.55;100812.59;1673543;85;20982;-71
2021/09/03 09:57:50;;;;;;;0.93;0.78;;;;;;;27.29;24.31;100822.84;1674332;84;20966;-71
2021/09/03 10:00:18;;;;;;;0.93;0.28;;;;;;;26.85;25.00;100822.05;1673923;84;21427;-70
2021/09/03 10:02:45;;;;;;;1.40;0.50;;;;;;;26.72;25.92;100827.84;1674253;85;21093;-70
2021/09/03 10:05:11;;;;;;;0.53;0.45;;;;;;;26.74;26.04;100824.45;1673541;85;21037;-71
2021/09/03 10:07:38;;;;;;;0.20;0.20;;;;;;;26.67;25.85;100825.73;1648990;85;20989;-71
2021/09/03 10:10:07;;;;;;;1.17;0.30;;;;;;;26.63;26.80;100822.58;1673467;85;20950;-70
2021/09/03 10:12:34;;;;;;;2.92;0.20;;;;;;;26.52;26.39;100817.69;1674137;85;20902;-70
2021/09/03 10:15:01;;;;;;;1.75;0.20;;;;;;;26.36;25.81;100825.49;1673849;85;21113;-72
2021/09/03 10:17:32;;;;;;;1.50;0.57;;;;;;;26.20;26.06;100833.29;1674092;85;20911;-70
2021/09/03 10:19:58;;;;;;;0.50;0.20;;;;;;;26.06;26.00;100832.83;1674230;85;20988;-70
2021/09/03 10:22:26;;;;;;;0.30;0.20;;;;;;;25.80;26.11;100830.09;1674439;85;20946;-72
2021/09/03 10:25:08;;;;;;;1.37;0.23;;;;;;;25.53;26.23;100832.10;1674242;84;21415;-70
2021/09/03 10:27:35;;;;;;;0.55;0.47;;;;;;;25.39;26.74;100831.91;1673435;85;21127;-71
2021/09/03 10:30:19;;;;;;;1.27;0.57;;;;;;;25.37;26.63;100832.60;1672710;85;20990;-71
2021/09/03 10:32:46;;;;;;;1.70;0.78;;;;;;;25.16;26.95;100834.61;1671516;85;21368;-70
2021/09/03 10:35:16;;;;;;;2.35;1.30;;;;;;;24.84;26.77;100838.44;1671383;84;20915;-71
2021/09/03 10:37:43;;;;;;;1.45;0.20;;;;;;;24.51;27.81;100832.48;1671688;85;21515;-69
2021/09/03 10:40:27;;;;;;;0.60;0.20;;;;;;;24.12;27.92;100838.22;1671567;84;21110;-69
2021/09/03 10:42:59;;;;;;;1.75;0.10;;;;;;;24.12;28.35;100834.20;1649640;85;20859;-72
2021/09/03 10:45:30;;;;;;;0.78;0.20;;;;;;;24.10;28.94;100829.52;1671452;85;21432;-71
2021/09/03 10:48:10;;;;;;;3.30;0.35;;;;;;;24.11;29.33;100833.02;1671667;85;20941;-71
2021/09/03 10:50:54;;;;;;;1.50;0.20;;;;;;;24.09;28.95;100829.68;1671517;84;20899;-69
2021/09/03 10:53:37;;;;;;;1.90;0.33;;;;;;;23.95;29.93;100829.92;1671866;84;21135;-71
2021/09/03 10:56:17;;;;;;;0.45;0.40;;;;;;;23.76;30.41;100833.33;1671554;85;26564;-71
2021/09/03 10:58:51;;;;;;;1.42;0.10;;;;;;;23.54;30.61;100832.22;1671439;85;20978;-72
2021/09/03 11:01:27;;;;;;;0.60;0.10;;;;;;;23.46;30.73;100832.23;1671834;84;21036;-72
2021/09/03 11:04:15;;;;;;;0.53;0.23;;;;;;;23.39;30.84;100833.93;1671679;84;20930;-72
2021/09/03 11:06:55;;;;;;;0.20;0.10;;;;;;;23.55;30.12;100831.20;1671480;85;20966;-72
2021/09/03 11:09:24;;;;;;;0.85;0.17;;;;;;;23.70;29.33;100827.80;1671704;85;21087;-72
2021/09/03 11:12:10;;;;;;;1.85;0.20;;;;;;;23.61;29.24;100830.17;1671721;84;20950;-70
2021/09/03 11:14:38;;;;;;;0.90;0.40;;;;;;;23.46;29.56;100827.39;1671411;85;20982;-71
2021/09/03 11:17:13;;;;;;;1.47;0.10;;;;;;;23.24;30.09;100819.06;1671817;85;20871;-70
2021/09/03 11:19:50;;;;;;;0.82;0.40;;;;;;;23.02;30.79;100817.92;1671283;85;20986;-70
2021/09/03 11:22:22;;;;;;;3.12;0.30;;;;;;;22.81;30.34;100821.56;1670895;84;20887;-71
2021/09/03 11:24:53;;;;;;;2.22;0.40;;;;;;;22.53;31.12;100822.72;1671644;84;20897;-71
2021/09/03 11:27:27;;;;;;;1.75;0.20;;;;;;;22.25;31.97;100823.49;1671285;85;20955;-70
2021/09/03 11:29:57;;;;;;;1.32;0.50;;;;;;;21.98;32.02;100827.73;1671092;85;20990;-72
2021/09/03 11:32:28;;;;;;;0.40;0.20;;;;;;;21.75;33.08;100818.14;1671699;85;21132;-70
2021/09/03 11:35:06;;;;;;;1.50;0.20;;;;;;;21.59;33.27;100813.06;1671580;84;20934;-70
2021/09/03 11:37:46;;;;;;;1.75;0.30;;;;;;;21.44;33.47;100812.80;1671803;85;20947;-71
2021/09/03 11:40:16;;;;;;;0.10;0.10;;;;;;;21.24;33.02;100812.15;1671452;85;20938;-73
2021/09/03 11:42:47;;;;;;;2.35;0.40;;;;;;;21.09;33.29;100817.71;1671586;85;21005;-75
2021/09/03 11:45:21;;;;;;;1.02;0.28;;;;;;;21.15;33.85;100807.76;1671620;84;21103;-73